Time;durP1;ratioP1;P1;durP2;ratioP2;P2;SDS_P1;SDS_P2;PMS_P1;PMS_P2;Temp;Humidity;BMP_temperature;BMP_pressure;BME280_temperature;BME280_humidity;BME280_pressure;Samples;Min_cycle;Max_cycle;Signal;HPM_P1;HPM_P2
2023/08/20 00:01:28;;;;;;;4.30;3.80;;;;;;;;;;4999841;28;20306;-56
2023/08/20 00:03:54;;;;;;;5.03;4.47;;;;;;;;;;5004131;28;20438;-56
2023/08/20 00:06:21;;;;;;;4.80;4.33;;;;;;;;;;5009079;28;20188;-55
2023/08/20 00:08:47;;;;;;;4.87;4.33;;;;;;;;;;5002595;28;20178;-56
2023/08/20 00:11:14;;;;;;;4.57;3.77;;;;;;;;;;5009805;28;20650;-55
2023/08/20 00:13:40;;;;;;;4.73;4.33;;;;;;;;;;5008688;28;20230;-55
2023/08/20 00:16:06;;;;;;;5.23;4.17;;;;;;;;;;5010442;28;20171;-55
2023/08/20 00:18:33;;;;;;;6.33;4.63;;;;;;;;;;5008401;28;20655;-56
2023/08/20 00:20:59;;;;;;;4.73;4.33;;;;;;;;;;4991375;28;20226;-56
2023/08/20 00:23:26;;;;;;;6.20;4.90;;;;;;;;;;5006871;28;20178;-56
2023/08/20 00:25:52;;;;;;;6.13;4.83;;;;;;;;;;5004900;28;20959;-55
2023/08/20 00:28:19;;;;;;;4.83;4.33;;;;;;;;;;5003752;28;20181;-55
2023/08/20 00:30:45;;;;;;;5.20;4.33;;;;;;;;;;5008630;28;20171;-56
2023/08/20 00:33:11;;;;;;;4.80;4.40;;;;;;;;;;5006181;28;20194;-55
2023/08/20 00:35:38;;;;;;;6.40;4.73;;;;;;;;;;5007598;28;20269;-56
2023/08/20 00:38:04;;;;;;;4.70;4.30;;;;;;;;;;5006165;28;20519;-56
2023/08/20 00:40:31;;;;;;;4.60;4.30;;;;;;;;;;5006915;28;20186;-56
2023/08/20 00:42:57;;;;;;;6.27;4.87;;;;;;;;;;5001526;28;20680;-56
2023/08/20 00:45:24;;;;;;;7.80;4.50;;;;;;;;;;5001899;28;20233;-55
2023/08/20 00:47:50;;;;;;;5.30;4.63;;;;;;;;;;5006539;28;20171;-55
2023/08/20 00:50:16;;;;;;;5.13;4.63;;;;;;;;;;5007400;28;20587;-55
2023/08/20 00:52:43;;;;;;;5.10;4.53;;;;;;;;;;4999483;28;20572;-56
2023/08/20 00:55:10;;;;;;;5.13;4.63;;;;;;;;;;4999251;28;20197;-56
2023/08/20 00:57:39;;;;;;;5.07;4.57;;;;;;;;;;5006872;28;20204;-54
2023/08/20 01:00:09;;;;;;;5.27;4.43;;;;;;;;;;5007258;28;20185;-54
2023/08/20 01:02:38;;;;;;;6.00;4.30;;;;;;;;;;4999109;28;20217;-54
2023/08/20 01:05:07;;;;;;;5.07;4.57;;;;;;;;;;4999254;28;20562;-54
2023/08/20 01:07:36;;;;;;;7.13;4.67;;;;;;;;;;5003423;28;20189;-55
2023/08/20 01:10:19;;;;;;;6.07;5.00;;;;;;;;;;5000772;28;20248;-54
2023/08/20 01:12:47;;;;;;;4.63;4.23;;;;;;;;;;5004481;28;20182;-55
2023/08/20 01:15:16;;;;;;;6.17;5.23;;;;;;;;;;5007847;28;20192;-55
2023/08/20 01:17:42;;;;;;;5.63;5.13;;;;;;;;;;5006366;28;20176;-56
2023/08/20 01:20:10;;;;;;;7.73;4.87;;;;;;;;;;5003188;28;20538;-55
2023/08/20 01:22:55;;;;;;;5.20;4.70;;;;;;;;;;4999842;28;20210;-55
2023/08/20 01:25:46;;;;;;;8.10;5.17;;;;;;;;;;4999013;28;20217;-54
2023/08/20 01:28:20;;;;;;;5.17;4.67;;;;;;;;;;5006484;28;20689;-54
2023/08/20 01:30:47;;;;;;;7.20;5.13;;;;;;;;;;5006961;28;20272;-55
2023/08/20 01:33:13;;;;;;;6.17;4.90;;;;;;;;;;5001976;28;20188;-54
2023/08/20 01:35:39;;;;;;;8.83;5.53;;;;;;;;;;5001884;28;20182;-55
2023/08/20 01:38:05;;;;;;;5.90;5.33;;;;;;;;;;5002751;28;20181;-55
2023/08/20 01:40:31;;;;;;;5.73;5.23;;;;;;;;;;5001046;28;20195;-55
2023/08/20 01:42:58;;;;;;;5.40;4.90;;;;;;;;;;5004454;28;20306;-55
2023/08/20 01:45:24;;;;;;;5.90;5.20;;;;;;;;;;5004947;28;20440;-54
2023/08/20 01:47:50;;;;;;;6.10;5.43;;;;;;;;;;5004272;28;20185;-55
2023/08/20 01:50:16;;;;;;;8.87;5.30;;;;;;;;;;5003273;28;20229;-56
2023/08/20 01:52:42;;;;;;;7.33;5.80;;;;;;;;;;5002536;28;20190;-55
2023/08/20 01:55:08;;;;;;;6.37;5.87;;;;;;;;;;5003241;28;20190;-56
2023/08/20 01:57:34;;;;;;;8.93;5.67;;;;;;;;;;5004439;28;20176;-55
2023/08/20 02:00:00;;;;;;;7.10;5.80;;;;;;;;;;5007806;28;20199;-53
2023/08/20 02:02:27;;;;;;;5.70;5.20;;;;;;;;;;5006505;28;20211;-54
2023/08/20 02:04:53;;;;;;;6.50;5.90;;;;;;;;;;5000326;28;20178;-55
2023/08/20 02:07:19;;;;;;;7.03;5.43;;;;;;;;;;5006313;28;20675;-55
2023/08/20 02:09:45;;;;;;;5.97;5.30;;;;;;;;;;5004096;28;20212;-55
2023/08/20 02:12:11;;;;;;;7.13;5.90;;;;;;;;;;4993289;28;20173;-54
2023/08/20 02:14:37;;;;;;;8.33;6.30;;;;;;;;;;5006056;28;20187;-54
2023/08/20 02:17:03;;;;;;;6.20;5.70;;;;;;;;;;5009122;28;20196;-54
2023/08/20 02:19:29;;;;;;;6.80;6.10;;;;;;;;;;5008878;28;20181;-54
2023/08/20 02:21:55;;;;;;;8.13;6.77;;;;;;;;;;4985810;28;20567;-54
2023/08/20 02:24:21;;;;;;;6.80;5.77;;;;;;;;;;5009336;28;20216;-54
2023/08/20 02:26:47;;;;;;;7.50;6.40;;;;;;;;;;5009051;28;20176;-55
2023/08/20 02:29:13;;;;;;;6.97;6.20;;;;;;;;;;5008642;28;20186;-54
2023/08/20 02:31:40;;;;;;;7.50;6.80;;;;;;;;;;5007899;28;20237;-54
2023/08/20 02:34:06;;;;;;;10.43;7.03;;;;;;;;;;5006986;28;20186;-54
2023/08/20 02:36:32;;;;;;;11.57;7.33;;;;;;;;;;5010861;28;20204;-54
2023/08/20 02:38:58;;;;;;;7.57;6.77;;;;;;;;;;5005932;28;20243;-54
2023/08/20 02:41:24;;;;;;;7.20;6.50;;;;;;;;;;5006865;28;20212;-54
2023/08/20 02:43:50;;;;;;;7.37;6.67;;;;;;;;;;5009634;28;20211;-54
2023/08/20 02:46:16;;;;;;;7.70;6.77;;;;;;;;;;5008730;28;20676;-54
2023/08/20 02:48:42;;;;;;;7.63;6.47;;;;;;;;;;5008281;28;20177;-54
2023/08/20 02:51:08;;;;;;;7.93;7.13;;;;;;;;;;5008792;28;20218;-55
2023/08/20 02:53:34;;;;;;;6.43;5.93;;;;;;;;;;4999961;28;20180;-55
2023/08/20 02:56:00;;;;;;;7.00;5.67;;;;;;;;;;5008389;28;20183;-55
2023/08/20 02:58:26;;;;;;;8.70;6.70;;;;;;;;;;5009393;28;20248;-55
2023/08/20 03:00:53;;;;;;;7.97;6.10;;;;;;;;;;5009316;28;20666;-53
2023/08/20 03:03:19;;;;;;;7.87;7.07;;;;;;;;;;5008233;28;20681;-54
2023/08/20 03:05:45;;;;;;;6.77;6.17;;;;;;;;;;5009355;28;20189;-54
2023/08/20 03:08:11;;;;;;;7.67;6.87;;;;;;;;;;5005986;28;20662;-54
2023/08/20 03:10:37;;;;;;;7.07;6.57;;;;;;;;;;5007780;28;20727;-54
2023/08/20 03:13:03;;;;;;;8.80;6.40;;;;;;;;;;5008449;28;20193;-54
2023/08/20 03:15:30;;;;;;;10.40;6.77;;;;;;;;;;5010061;28;20211;-54
2023/08/20 03:17:56;;;;;;;6.87;6.17;;;;;;;;;;5002753;28;20831;-54
2023/08/20 03:20:22;;;;;;;7.73;6.57;;;;;;;;;;5010265;28;20190;-54
2023/08/20 03:22:49;;;;;;;7.50;6.80;;;;;;;;;;5007717;28;20666;-54
2023/08/20 03:25:15;;;;;;;7.97;7.10;;;;;;;;;;5008834;28;20184;-54
2023/08/20 03:27:41;;;;;;;7.40;6.70;;;;;;;;;;4999721;28;20188;-54
2023/08/20 03:30:07;;;;;;;8.87;6.83;;;;;;;;;;5009382;28;20177;-55
2023/08/20 03:32:33;;;;;;;9.60;7.93;;;;;;;;;;5006678;28;20582;-54
2023/08/20 03:34:59;;;;;;;10.00;7.23;;;;;;;;;;5007780;28;20646;-54
2023/08/20 03:37:26;;;;;;;8.07;7.37;;;;;;;;;;5004407;28;20642;-55
2023/08/20 03:39:52;;;;;;;9.23;8.33;;;;;;;;;;5005588;28;20901;-54
2023/08/20 03:42:18;;;;;;;8.80;8.00;;;;;;;;;;5004332;28;20793;-54
2023/08/20 03:44:44;;;;;;;8.90;8.00;;;;;;;;;;5009146;28;20648;-54
2023/08/20 03:47:10;;;;;;;11.90;7.93;;;;;;;;;;5008565;28;20180;-54
2023/08/20 03:49:37;;;;;;;9.60;8.17;;;;;;;;;;5008651;28;20181;-54
2023/08/20 03:52:03;;;;;;;9.07;8.27;;;;;;;;;;5004922;28;20178;-53
2023/08/20 03:54:29;;;;;;;8.60;7.70;;;;;;;;;;5006731;28;20237;-54
2023/08/20 03:56:56;;;;;;;9.17;8.27;;;;;;;;;;4998449;28;20283;-54
2023/08/20 03:59:22;;;;;;;13.40;8.53;;;;;;;;;;4991886;28;20181;-53
2023/08/20 04:01:48;;;;;;;10.80;7.67;;;;;;;;;;4991354;28;20214;-55
2023/08/20 04:04:14;;;;;;;9.03;8.07;;;;;;;;;;5007813;28;20274;-54
2023/08/20 04:06:40;;;;;;;9.80;7.90;;;;;;;;;;4999291;28;20548;-54
2023/08/20 04:09:08;;;;;;;9.17;8.37;;;;;;;;;;5005333;28;20630;-54
2023/08/20 04:11:34;;;;;;;8.97;8.17;;;;;;;;;;5010842;28;20164;-54
2023/08/20 04:14:01;;;;;;;9.13;8.23;;;;;;;;;;4997697;28;20664;-54
2023/08/20 04:16:27;;;;;;;9.60;7.47;;;;;;;;;;5010394;28;20184;-53
2023/08/20 04:18:53;;;;;;;11.93;8.83;;;;;;;;;;5010500;28;20206;-58
2023/08/20 04:21:19;;;;;;;10.07;8.80;;;;;;;;;;4994080;28;20183;-54
2023/08/20 04:23:45;;;;;;;11.20;8.33;;;;;;;;;;4993328;28;20194;-54
2023/08/20 04:26:12;;;;;;;10.27;7.77;;;;;;;;;;5002928;28;20595;-54
2023/08/20 04:28:38;;;;;;;8.50;7.80;;;;;;;;;;4986865;28;20198;-55
2023/08/20 04:31:04;;;;;;;8.90;8.07;;;;;;;;;;5004818;28;20676;-54
2023/08/20 04:33:30;;;;;;;8.23;7.53;;;;;;;;;;5007849;28;20193;-54
2023/08/20 04:35:57;;;;;;;8.80;8.00;;;;;;;;;;5008865;28;20201;-54
2023/08/20 04:38:23;;;;;;;9.30;7.67;;;;;;;;;;5005501;28;20178;-54
2023/08/20 04:40:49;;;;;;;8.30;7.33;;;;;;;;;;5007620;28;20175;-54
2023/08/20 04:43:16;;;;;;;7.77;6.93;;;;;;;;;;4979767;28;20203;-54
2023/08/20 04:45:42;;;;;;;7.67;7.00;;;;;;;;;;5002636;28;20194;-54
2023/08/20 04:48:08;;;;;;;10.07;8.50;;;;;;;;;;5006280;28;20505;-54
2023/08/20 04:50:35;;;;;;;8.30;7.30;;;;;;;;;;5007637;28;20223;-54
2023/08/20 04:53:01;;;;;;;10.37;8.10;;;;;;;;;;5006449;28;20676;-54
2023/08/20 04:55:27;;;;;;;8.73;7.83;;;;;;;;;;5005977;28;21498;-55
2023/08/20 04:57:54;;;;;;;8.77;7.93;;;;;;;;;;5005589;28;20189;-54
2023/08/20 05:00:20;;;;;;;9.33;8.43;;;;;;;;;;5005373;28;20188;-54
2023/08/20 05:02:46;;;;;;;8.30;7.50;;;;;;;;;;5008291;28;20218;-54
2023/08/20 05:05:12;;;;;;;8.73;7.83;;;;;;;;;;5007807;28;20515;-54
2023/08/20 05:07:38;;;;;;;9.57;7.43;;;;;;;;;;5007185;28;20662;-55
2023/08/20 05:10:05;;;;;;;7.77;7.03;;;;;;;;;;5005721;28;20184;-53
2023/08/20 05:12:31;;;;;;;8.77;7.97;;;;;;;;;;5004743;28;20658;-54
2023/08/20 05:14:57;;;;;;;8.30;7.60;;;;;;;;;;4996399;28;20250;-54
2023/08/20 05:17:23;;;;;;;8.97;8.07;;;;;;;;;;5002663;28;20313;-54
2023/08/20 05:19:49;;;;;;;9.13;8.33;;;;;;;;;;5007953;28;20256;-53
2023/08/20 05:22:15;;;;;;;9.13;8.37;;;;;;;;;;5004333;28;20202;-54
2023/08/20 05:24:41;;;;;;;9.23;8.33;;;;;;;;;;5006545;28;20180;-54
2023/08/20 05:27:19;;;;;;;9.40;7.63;;;;;;;;;;5006151;28;20190;-54
2023/08/20 05:29:45;;;;;;;8.67;7.80;;;;;;;;;;5007480;28;20205;-54
2023/08/20 05:32:12;;;;;;;8.60;7.80;;;;;;;;;;5006334;28;20198;-54
2023/08/20 05:34:38;;;;;;;11.47;7.67;;;;;;;;;;5006707;28;20201;-54
2023/08/20 05:37:04;;;;;;;8.20;7.50;;;;;;;;;;5006766;28;20208;-55
2023/08/20 05:39:31;;;;;;;7.47;6.87;;;;;;;;;;5006454;28;20212;-55
2023/08/20 05:41:57;;;;;;;9.20;8.07;;;;;;;;;;5000504;28;20198;-54
2023/08/20 05:44:23;;;;;;;9.73;8.73;;;;;;;;;;5005938;28;20228;-58
2023/08/20 05:46:49;;;;;;;12.47;8.13;;;;;;;;;;5004719;28;20236;-58
2023/08/20 05:49:16;;;;;;;7.93;7.20;;;;;;;;;;5004156;28;20197;-58
2023/08/20 05:51:45;;;;;;;10.00;9.10;;;;;;;;;;5007631;28;20709;-59
2023/08/20 05:54:11;;;;;;;9.53;8.57;;;;;;;;;;5010339;28;20656;-58
2023/08/20 05:56:37;;;;;;;11.17;10.20;;;;;;;;;;5009413;28;20189;-59
2023/08/20 05:59:04;;;;;;;11.00;9.87;;;;;;;;;;5010979;28;20193;-59
2023/08/20 06:01:30;;;;;;;11.60;10.50;;;;;;;;;;5011353;28;20293;-59
2023/08/20 06:03:56;;;;;;;12.13;10.13;;;;;;;;;;5010753;28;20186;-58
2023/08/20 06:06:22;;;;;;;11.27;9.13;;;;;;;;;;5010777;28;20792;-57
2023/08/20 06:08:48;;;;;;;10.33;9.23;;;;;;;;;;5003919;28;20745;-59
2023/08/20 06:11:14;;;;;;;11.80;9.57;;;;;;;;;;5007571;28;20180;-59
2023/08/20 06:13:40;;;;;;;9.80;8.93;;;;;;;;;;5010495;28;20189;-59
2023/08/20 06:16:08;;;;;;;10.73;9.73;;;;;;;;;;5011306;28;20224;-59
2023/08/20 06:18:34;;;;;;;11.77;10.63;;;;;;;;;;5008208;28;20175;-58
2023/08/20 06:21:00;;;;;;;9.77;8.87;;;;;;;;;;5001850;28;20174;-59
2023/08/20 06:23:26;;;;;;;9.57;8.67;;;;;;;;;;5007399;28;20206;-57
2023/08/20 06:25:52;;;;;;;10.20;9.30;;;;;;;;;;5015599;28;20190;-59
2023/08/20 06:28:18;;;;;;;10.83;9.47;;;;;;;;;;5008070;28;20186;-59
2023/08/20 06:30:45;;;;;;;10.63;9.63;;;;;;;;;;5009584;28;20312;-59
2023/08/20 06:33:11;;;;;;;10.03;9.13;;;;;;;;;;4992559;28;20194;-59
2023/08/20 06:35:37;;;;;;;9.73;8.93;;;;;;;;;;5011005;28;21018;-59
2023/08/20 06:38:03;;;;;;;9.80;8.93;;;;;;;;;;5005891;28;20631;-59
2023/08/20 06:40:30;;;;;;;9.83;8.93;;;;;;;;;;5006850;28;20183;-59
2023/08/20 06:42:56;;;;;;;12.37;10.50;;;;;;;;;;5001966;28;20209;-59
2023/08/20 06:45:22;;;;;;;10.23;8.90;;;;;;;;;;5005773;28;20217;-60
2023/08/20 06:47:48;;;;;;;9.27;8.47;;;;;;;;;;5010615;28;20187;-60
2023/08/20 06:50:17;;;;;;;9.60;8.60;;;;;;;;;;5009311;28;20226;-60
2023/08/20 06:52:44;;;;;;;10.07;9.03;;;;;;;;;;5008627;28;20187;-60
2023/08/20 06:55:10;;;;;;;10.23;9.17;;;;;;;;;;5009199;28;20217;-57
2023/08/20 06:57:36;;;;;;;9.67;8.87;;;;;;;;;;5007616;28;20545;-60
2023/08/20 07:00:04;;;;;;;10.03;9.13;;;;;;;;;;5003322;28;20576;-56
2023/08/20 07:02:30;;;;;;;11.87;9.43;;;;;;;;;;5002642;28;20352;-57
2023/08/20 07:04:56;;;;;;;11.27;10.00;;;;;;;;;;4988545;28;20710;-59
2023/08/20 07:07:23;;;;;;;14.73;12.13;;;;;;;;;;5007401;28;20267;-58
2023/08/20 07:09:49;;;;;;;12.37;11.10;;;;;;;;;;5002050;28;20656;-58
2023/08/20 07:12:15;;;;;;;19.87;10.70;;;;;;;;;;5004004;28;20230;-57
2023/08/20 07:14:41;;;;;;;12.07;10.87;;;;;;;;;;5005505;28;20269;-59
2023/08/20 07:17:07;;;;;;;11.97;10.63;;;;;;;;;;5006239;28;20182;-59
2023/08/20 07:19:33;;;;;;;13.47;11.97;;;;;;;;;;5008396;28;21466;-60
2023/08/20 07:21:59;;;;;;;12.60;11.30;;;;;;;;;;5010189;28;20285;-60
2023/08/20 07:24:25;;;;;;;13.50;12.10;;;;;;;;;;5006873;28;20269;-59
2023/08/20 07:26:52;;;;;;;12.70;11.40;;;;;;;;;;5005341;28;20182;-58
2023/08/20 07:29:18;;;;;;;13.77;12.40;;;;;;;;;;5002965;28;20675;-59
2023/08/20 07:31:44;;;;;;;13.97;12.63;;;;;;;;;;4998724;28;20627;-59
2023/08/20 07:34:10;;;;;;;14.33;13.13;;;;;;;;;;5000041;28;20809;-58
2023/08/20 07:36:37;;;;;;;12.73;11.60;;;;;;;;;;5004704;28;20195;-59
2023/08/20 07:39:03;;;;;;;13.27;11.97;;;;;;;;;;5001649;28;20180;-62
2023/08/20 07:41:29;;;;;;;14.60;13.17;;;;;;;;;;5003571;28;20266;-59
2023/08/20 07:43:55;;;;;;;13.20;12.00;;;;;;;;;;5005339;28;20178;-59
2023/08/20 07:46:21;;;;;;;12.83;11.53;;;;;;;;;;5003435;28;20262;-59
2023/08/20 07:48:47;;;;;;;13.47;12.07;;;;;;;;;;5001376;28;20210;-59
2023/08/20 07:51:13;;;;;;;14.67;13.17;;;;;;;;;;5005898;28;20239;-59
2023/08/20 07:53:39;;;;;;;13.73;12.33;;;;;;;;;;5001585;28;20182;-59
2023/08/20 07:56:05;;;;;;;14.37;12.97;;;;;;;;;;5000041;28;20210;-58
2023/08/20 07:58:31;;;;;;;13.43;11.53;;;;;;;;;;5000963;28;20187;-58
2023/08/20 08:00:58;;;;;;;15.23;11.97;;;;;;;;;;5006590;28;20178;-59
2023/08/20 08:03:26;;;;;;;12.50;11.30;;;;;;;;;;5002930;28;20282;-59
2023/08/20 08:05:53;;;;;;;13.00;11.63;;;;;;;;;;5004804;28;20654;-59
2023/08/20 08:08:20;;;;;;;15.23;13.63;;;;;;;;;;5008246;28;20170;-61
2023/08/20 08:10:46;;;;;;;14.97;13.37;;;;;;;;;;5004195;28;20325;-59
2023/08/20 08:13:17;;;;;;;14.20;12.63;;;;;;;;;;5000212;28;21110;-59
2023/08/20 08:15:43;;;;;;;16.03;13.67;;;;;;;;;;5005617;28;20187;-56
2023/08/20 08:18:09;;;;;;;16.57;12.60;;;;;;;;;;5003765;28;20187;-55
2023/08/20 08:20:35;;;;;;;20.03;14.97;;;;;;;;;;5002350;28;20213;-56
2023/08/20 08:23:01;;;;;;;18.93;13.77;;;;;;;;;;5004561;28;20549;-55
2023/08/20 08:25:28;;;;;;;14.80;13.23;;;;;;;;;;5004428;28;20179;-55
2023/08/20 08:27:54;;;;;;;14.00;12.33;;;;;;;;;;5007297;28;20255;-57
2023/08/20 08:30:20;;;;;;;14.57;12.07;;;;;;;;;;5003502;28;20176;-56
2023/08/20 08:32:46;;;;;;;13.17;11.30;;;;;;;;;;5003699;28;20550;-56
2023/08/20 08:35:12;;;;;;;12.30;10.53;;;;;;;;;;5001996;28;21261;-56
2023/08/20 08:37:38;;;;;;;13.53;11.37;;;;;;;;;;5006575;28;20192;-56
2023/08/20 08:40:08;;;;;;;11.27;9.73;;;;;;;;;;4999950;28;20198;-56
2023/08/20 08:42:34;;;;;;;10.33;8.07;;;;;;;;;;5003648;28;20211;-55
2023/08/20 08:45:00;;;;;;;9.47;8.57;;;;;;;;;;5002437;28;20186;-56
2023/08/20 08:47:27;;;;;;;10.90;8.15;;;;;;;;;;5004208;28;20638;-56
2023/08/20 08:49:56;;;;;;;9.15;8.25;;;;;;;;;;4999920;28;20694;-56
2023/08/20 08:52:23;;;;;;;9.55;8.68;;;;;;;;;;4998801;28;20597;-55
2023/08/20 08:54:49;;;;;;;8.50;7.70;;;;;;;;;;4999639;28;20265;-55
2023/08/20 08:57:15;;;;;;;13.65;8.52;;;;;;;;;;5003803;28;20188;-56
2023/08/20 08:59:42;;;;;;;9.15;8.30;;;;;;;;;;5000150;28;20680;-56
2023/08/20 09:02:09;;;;;;;10.50;9.43;;;;;;;;;;5002078;28;20667;-55
2023/08/20 09:04:35;;;;;;;11.55;10.35;;;;;;;;;;5003266;28;20180;-56
2023/08/20 09:07:01;;;;;;;11.65;9.80;;;;;;;;;;4999112;28;20174;-56
2023/08/20 09:09:30;;;;;;;11.13;9.98;;;;;;;;;;4977000;28;20287;-55
2023/08/20 09:11:56;;;;;;;10.03;9.03;;;;;;;;;;5002807;28;20176;-56
2023/08/20 09:14:23;;;;;;;9.60;8.70;;;;;;;;;;5000896;28;20655;-55
2023/08/20 09:16:59;;;;;;;10.07;9.07;;;;;;;;;;5003692;28;20277;-56
2023/08/20 09:19:29;;;;;;;9.70;8.70;;;;;;;;;;5001659;28;20181;-55
2023/08/20 09:21:55;;;;;;;10.43;9.30;;;;;;;;;;4998371;28;20234;-54
2023/08/20 09:24:42;;;;;;;9.27;8.37;;;;;;;;;;5001941;28;20177;-57
2023/08/20 09:27:08;;;;;;;13.00;9.53;;;;;;;;;;5003310;28;20281;-56
2023/08/20 09:30:03;;;;;;;10.40;9.40;;;;;;;;;;5000665;28;20180;-57
2023/08/20 09:32:30;;;;;;;12.00;9.20;;;;;;;;;;4993785;28;20198;-57
2023/08/20 09:34:56;;;;;;;9.70;8.70;;;;;;;;;;5000285;28;20195;-57
2023/08/20 09:37:23;;;;;;;10.53;9.43;;;;;;;;;;5000211;28;20205;-57
2023/08/20 09:39:49;;;;;;;12.63;10.00;;;;;;;;;;5001132;28;20945;-57
2023/08/20 09:42:16;;;;;;;10.67;9.53;;;;;;;;;;5001520;28;20235;-56
2023/08/20 09:44:43;;;;;;;8.93;8.03;;;;;;;;;;5000380;28;20333;-56
2023/08/20 09:47:09;;;;;;;10.97;9.73;;;;;;;;;;5006545;28;20181;-56
2023/08/20 09:49:39;;;;;;;10.43;9.40;;;;;;;;;;4997128;28;20530;-57
2023/08/20 09:52:09;;;;;;;10.17;9.30;;;;;;;;;;5003765;28;20202;-56
2023/08/20 09:54:39;;;;;;;10.83;9.63;;;;;;;;;;5005626;28;20182;-56
2023/08/20 09:57:07;;;;;;;10.23;9.33;;;;;;;;;;4982145;28;20190;-56
2023/08/20 09:59:35;;;;;;;11.30;10.20;;;;;;;;;;5002399;28;20173;-55
2023/08/20 10:02:02;;;;;;;10.80;9.40;;;;;;;;;;5001399;28;20740;-55
2023/08/20 10:04:31;;;;;;;9.57;8.67;;;;;;;;;;5002646;28;20526;-55
2023/08/20 10:06:59;;;;;;;10.17;9.23;;;;;;;;;;5007563;28;20601;-56
2023/08/20 10:09:28;;;;;;;9.40;8.40;;;;;;;;;;5000848;28;20761;-56
2023/08/20 10:11:54;;;;;;;10.33;9.20;;;;;;;;;;4998572;28;20360;-56
2023/08/20 10:14:20;;;;;;;9.60;8.80;;;;;;;;;;5005310;28;20193;-57
2023/08/20 10:16:46;;;;;;;9.93;9.07;;;;;;;;;;5008054;28;20659;-57
2023/08/20 10:19:12;;;;;;;10.43;9.43;;;;;;;;;;5006134;28;20642;-57
2023/08/20 10:21:44;;;;;;;10.63;9.63;;;;;;;;;;4994284;28;20190;-55
2023/08/20 10:24:11;;;;;;;10.77;9.77;;;;;;;;;;5005664;28;20188;-55
2023/08/20 10:26:37;;;;;;;10.37;9.37;;;;;;;;;;5007773;28;20190;-56
2023/08/20 10:29:22;;;;;;;11.90;10.87;;;;;;;;;;5000989;28;20181;-55
2023/08/20 10:31:48;;;;;;;11.83;10.83;;;;;;;;;;5005518;28;20192;-57
2023/08/20 10:34:34;;;;;;;13.00;11.90;;;;;;;;;;4996849;28;20178;-55
2023/08/20 10:37:03;;;;;;;12.33;11.30;;;;;;;;;;5005555;28;20655;-55
2023/08/20 10:39:29;;;;;;;12.77;11.57;;;;;;;;;;4987945;28;20654;-55
2023/08/20 10:42:11;;;;;;;12.53;11.50;;;;;;;;;;5007171;28;20336;-55
2023/08/20 10:45:12;;;;;;;13.27;12.00;;;;;;;;;;5001614;28;20633;-56
2023/08/20 10:47:44;;;;;;;11.80;10.80;;;;;;;;;;4947661;29;20219;-56
2023/08/20 10:50:12;;;;;;;13.93;12.43;;;;;;;;;;4996055;28;20372;-54
2023/08/20 10:52:56;;;;;;;14.33;13.13;;;;;;;;;;5003465;28;20187;-55
2023/08/20 10:55:26;;;;;;;12.73;11.63;;;;;;;;;;5004834;28;20184;-56
2023/08/20 10:57:56;;;;;;;13.23;12.23;;;;;;;;;;5001282;28;20185;-59
2023/08/20 11:00:23;;;;;;;13.83;12.73;;;;;;;;;;4998098;28;20202;-56
2023/08/20 11:02:50;;;;;;;13.50;12.47;;;;;;;;;;4984644;28;20244;-55
2023/08/20 11:05:22;;;;;;;14.00;12.90;;;;;;;;;;4999801;28;20191;-55
2023/08/20 11:07:49;;;;;;;13.57;12.43;;;;;;;;;;5006454;28;20591;-55
2023/08/20 11:10:16;;;;;;;14.13;12.43;;;;;;;;;;5001065;28;20209;-56
2023/08/20 11:12:46;;;;;;;11.83;10.93;;;;;;;;;;5005322;28;20233;-55
2023/08/20 11:15:12;;;;;;;10.20;9.40;;;;;;;;;;5003828;28;20193;-56
2023/08/20 11:17:57;;;;;;;8.37;7.67;;;;;;;;;;5010344;28;20183;-55
2023/08/20 11:20:24;;;;;;;9.67;8.63;;;;;;;;;;5005489;28;20196;-54
2023/08/20 11:22:51;;;;;;;6.87;6.37;;;;;;;;;;5006487;28;20229;-56
2023/08/20 11:25:17;;;;;;;6.30;5.80;;;;;;;;;;5004041;28;20954;-54
2023/08/20 11:27:44;;;;;;;5.23;4.83;;;;;;;;;;5007242;28;20181;-56
2023/08/20 11:30:14;;;;;;;5.33;4.83;;;;;;;;;;5006760;28;20597;-54
2023/08/20 11:32:40;;;;;;;5.80;5.30;;;;;;;;;;5006700;28;20181;-54
2023/08/20 11:35:08;;;;;;;10.20;7.07;;;;;;;;;;5002265;28;20265;-56
2023/08/20 11:37:34;;;;;;;6.13;5.63;;;;;;;;;;4982484;28;20249;-54
2023/08/20 11:40:00;;;;;;;6.00;5.50;;;;;;;;;;4990267;28;20280;-54
2023/08/20 11:42:26;;;;;;;6.00;5.60;;;;;;;;;;5004093;28;20729;-54
2023/08/20 11:44:55;;;;;;;6.43;5.83;;;;;;;;;;5005486;28;20635;-55
2023/08/20 11:47:21;;;;;;;6.33;5.83;;;;;;;;;;4995940;28;20176;-56
2023/08/20 11:49:48;;;;;;;9.87;5.60;;;;;;;;;;5004615;28;21087;-55
2023/08/20 11:52:14;;;;;;;6.03;5.63;;;;;;;;;;4985489;28;20648;-54
2023/08/20 11:54:40;;;;;;;7.13;6.13;;;;;;;;;;5004768;28;20194;-54
2023/08/20 11:57:07;;;;;;;7.00;6.30;;;;;;;;;;5002841;28;20240;-55
2023/08/20 11:59:33;;;;;;;7.37;6.77;;;;;;;;;;5003485;28;20672;-57
2023/08/20 12:02:00;;;;;;;7.30;5.83;;;;;;;;;;5007615;28;20213;-55
2023/08/20 12:04:26;;;;;;;6.60;5.93;;;;;;;;;;5005629;28;20229;-58
2023/08/20 12:07:04;;;;;;;6.80;6.13;;;;;;;;;;5007158;28;20526;-57
2023/08/20 12:09:31;;;;;;;6.07;5.53;;;;;;;;;;5004196;28;20247;-58
2023/08/20 12:11:57;;;;;;;5.27;4.77;;;;;;;;;;5005152;28;20191;-58
2023/08/20 12:14:24;;;;;;;6.27;5.63;;;;;;;;;;5002419;28;20959;-58
2023/08/20 12:16:53;;;;;;;11.55;5.20;;;;;;;;;;5000865;28;20190;-57
2023/08/20 12:19:19;;;;;;;5.63;5.10;;;;;;;;;;5005759;28;20192;-57
2023/08/20 12:21:45;;;;;;;6.15;5.63;;;;;;;;;;5003013;28;20191;-57
2023/08/20 12:24:11;;;;;;;5.73;5.10;;;;;;;;;;4985058;28;20197;-57
2023/08/20 12:26:37;;;;;;;8.80;6.63;;;;;;;;;;5006891;28;20213;-57
2023/08/20 12:29:04;;;;;;;5.70;5.20;;;;;;;;;;5006301;28;20191;-57
2023/08/20 12:31:30;;;;;;;5.70;5.10;;;;;;;;;;5008790;28;20192;-57
2023/08/20 12:33:56;;;;;;;5.50;5.10;;;;;;;;;;5002603;28;20191;-57
2023/08/20 12:36:22;;;;;;;6.33;5.57;;;;;;;;;;5007778;28;20183;-57
2023/08/20 12:38:48;;;;;;;9.20;5.88;;;;;;;;;;4981934;28;20199;-57
2023/08/20 12:41:14;;;;;;;5.40;4.90;;;;;;;;;;5008411;28;20637;-57
2023/08/20 12:43:41;;;;;;;6.90;4.95;;;;;;;;;;5007856;28;20195;-57
2023/08/20 12:46:07;;;;;;;5.03;4.53;;;;;;;;;;5005804;28;20186;-57
2023/08/20 12:48:33;;;;;;;5.30;4.72;;;;;;;;;;5003393;28;20623;-57
2023/08/20 12:50:59;;;;;;;7.30;4.55;;;;;;;;;;5000745;28;20833;-57
2023/08/20 12:53:25;;;;;;;4.73;4.33;;;;;;;;;;5004847;28;20268;-57
2023/08/20 12:55:51;;;;;;;6.10;4.50;;;;;;;;;;5007451;28;20187;-57
2023/08/20 12:58:17;;;;;;;5.87;4.40;;;;;;;;;;5007851;28;20662;-57
2023/08/20 13:00:43;;;;;;;5.05;4.55;;;;;;;;;;5006116;28;20677;-57
2023/08/20 13:03:10;;;;;;;5.70;4.13;;;;;;;;;;5005438;28;20674;-57
2023/08/20 13:05:36;;;;;;;4.33;3.90;;;;;;;;;;5003835;28;20262;-57
2023/08/20 13:08:02;;;;;;;4.55;4.15;;;;;;;;;;5002000;28;20551;-57
2023/08/20 13:10:28;;;;;;;4.78;4.10;;;;;;;;;;4989915;28;20187;-57
2023/08/20 13:12:56;;;;;;;5.80;4.07;;;;;;;;;;5008141;28;20668;-57
2023/08/20 13:15:24;;;;;;;5.05;4.50;;;;;;;;;;5009379;28;20660;-54
2023/08/20 13:17:50;;;;;;;4.25;3.70;;;;;;;;;;5007484;28;20198;-54
2023/08/20 13:20:24;;;;;;;5.20;3.83;;;;;;;;;;5007304;28;20612;-55
2023/08/20 13:22:51;;;;;;;4.32;3.70;;;;;;;;;;5007930;28;20202;-55
2023/08/20 13:25:18;;;;;;;4.57;3.97;;;;;;;;;;5008906;28;20179;-57
2023/08/20 13:27:44;;;;;;;7.47;4.03;;;;;;;;;;5007824;28;20601;-57
2023/08/20 13:30:11;;;;;;;4.53;4.03;;;;;;;;;;5006211;28;20178;-57
2023/08/20 13:32:37;;;;;;;5.13;4.60;;;;;;;;;;5001685;28;20185;-58
2023/08/20 13:35:04;;;;;;;4.88;3.92;;;;;;;;;;5003259;28;20186;-58
2023/08/20 13:37:33;;;;;;;5.37;3.60;;;;;;;;;;5008231;28;20550;-58
2023/08/20 13:39:59;;;;;;;4.68;3.55;;;;;;;;;;5007572;28;20186;-57
2023/08/20 13:42:25;;;;;;;5.35;3.53;;;;;;;;;;5006805;28;20951;-57
2023/08/20 13:44:52;;;;;;;5.47;4.18;;;;;;;;;;5007156;28;20185;-57
2023/08/20 13:47:18;;;;;;;5.75;3.80;;;;;;;;;;5007379;28;20256;-57
2023/08/20 13:49:44;;;;;;;4.22;3.88;;;;;;;;;;5007354;28;20223;-58
2023/08/20 13:52:10;;;;;;;3.97;3.58;;;;;;;;;;5006941;28;20190;-57
2023/08/20 13:54:37;;;;;;;4.47;4.07;;;;;;;;;;4989819;28;20639;-57
2023/08/20 13:57:03;;;;;;;5.30;4.65;;;;;;;;;;5008045;28;20658;-57
2023/08/20 13:59:29;;;;;;;4.82;4.35;;;;;;;;;;5007553;28;20194;-57
2023/08/20 14:01:55;;;;;;;5.47;4.30;;;;;;;;;;5005512;28;20223;-57
2023/08/20 14:04:22;;;;;;;5.43;4.80;;;;;;;;;;5005480;28;20175;-57
2023/08/20 14:06:51;;;;;;;4.60;3.53;;;;;;;;;;5008186;28;20189;-57
2023/08/20 14:09:18;;;;;;;4.47;3.73;;;;;;;;;;5001406;28;20187;-57
2023/08/20 14:11:44;;;;;;;5.72;4.22;;;;;;;;;;5008889;28;20224;-57
2023/08/20 14:14:10;;;;;;;6.70;4.60;;;;;;;;;;5008445;28;20194;-59
2023/08/20 14:16:37;;;;;;;4.82;3.97;;;;;;;;;;5009947;28;20201;-59
2023/08/20 14:19:05;;;;;;;4.30;3.88;;;;;;;;;;5007664;28;20176;-58
2023/08/20 14:21:31;;;;;;;5.33;4.37;;;;;;;;;;5005772;28;20207;-59
2023/08/20 14:23:57;;;;;;;7.35;4.10;;;;;;;;;;5009992;28;20293;-58
2023/08/20 14:26:24;;;;;;;4.78;4.10;;;;;;;;;;5010084;28;20171;-58
2023/08/20 14:28:50;;;;;;;5.17;4.00;;;;;;;;;;5009913;28;20181;-59
2023/08/20 14:31:16;;;;;;;4.38;3.97;;;;;;;;;;5010753;28;20266;-58
2023/08/20 14:33:42;;;;;;;6.18;4.43;;;;;;;;;;5008557;28;20405;-58
2023/08/20 14:36:08;;;;;;;6.10;4.85;;;;;;;;;;5009926;28;20273;-58